Serrai, Greece
Current Conditions -  °F | °C
As of 12:20 PM on Monday 24 Nov 2014 (Local Time) from LGTS Reporting Station
Few Clouds Few Clouds  
Wind Chill: 52°   Ceiling: Unl
Heat Index: 52°   Visibility: 6mi
Dew Point: 41°   Wind: 2mph
Humidity: 67%   Direction: NA
Pressure: 30.27"   Gusts: NA
Location:  41.09°N, 23.55°E
Report Text: LGTS 240920Z VRB02KT 9999 FEW030 11/05 Q1025 NOSIG
Loading
Personal Weather Stations






























Interactive Weather Map New forecast layout! Learn more

10-Day Weather Forecast

Advertisements
Track Severe Weather on mobile